Time;durP1;ratioP1;P1;durP2;ratioP2;P2;SDS_P1;SDS_P2;PMS_P1;PMS_P2;Temp;Humidity;BMP_temperature;BMP_pressure;BME280_temperature;BME280_humidity;BME280_pressure;Samples;Min_cycle;Max_cycle;Signal;HPM_P1;HPM_P2
2022/06/07 00:00:56;;;;;;;;;;;;;;;;;;6137971;23;19932;-91
2022/06/07 00:03:22;;;;;;;;;;;;;;;;;;6165085;23;19912;-93
2022/06/07 00:05:49;;;;;;;;;;;;;;;;;;6138722;23;19909;-92
2022/06/07 00:08:16;;;;;;;;;;;;;;;;;;6140221;23;19912;-92
2022/06/07 00:10:42;;;;;;;;;;;;;;;;;;6136838;23;19940;-92
2022/06/07 00:13:10;;;;;;;;;;;;;;;;;;6137072;23;19919;-92
2022/06/07 00:15:37;;;;;;;;;;;;;;;;;;6150535;23;19913;-92
2022/06/07 00:18:08;;;;;;;;;;;;;;;;;;6140247;23;19920;-93
2022/06/07 00:20:35;;;;;;;;;;;;;;;;;;6145095;23;19992;-92
2022/06/07 00:23:01;;;;;;;;;;;;;;;;;;6138115;23;19947;-93
2022/06/07 00:25:30;;;;;;;;;;;;;;;;;;6165125;23;19913;-93
2022/06/07 00:27:55;;;;;;;;;;;;;;;;;;6165390;23;19913;-93
2022/06/07 00:30:21;;;;;;;;;;;;;;;;;;6166241;23;20386;-92
2022/06/07 00:32:46;;;;;;;;;;;;;;;;;;6139520;23;19913;-91
2022/06/07 00:35:12;;;;;;;;;;;;;;;;;;6138286;23;19944;-93
2022/06/07 00:37:37;;;;;;;;;;;;;;;;;;6139570;23;19908;-91
2022/06/07 00:40:05;;;;;;;;;;;;;;;;;;6163737;23;19920;-92
2022/06/07 00:42:30;;;;;;;;;;;;;;;;;;6164424;23;19968;-91
2022/06/07 00:44:56;;;;;;;;;;;;;;;;;;6138807;23;19940;-91
2022/06/07 00:47:24;;;;;;;;;;;;;;;;;;6162724;23;19913;-91
2022/06/07 00:50:09;;;;;;;;;;;;;;;;;;6164842;23;20285;-91
2022/06/07 00:52:36;;;;;;;;;;;;;;;;;;6138856;23;20321;-92
2022/06/07 00:55:04;;;;;;;;;;;;;;;;;;6167094;23;19913;-93
2022/06/07 00:57:34;;;;;;;;;;;;;;;;;;6114693;23;19924;-92
2022/06/07 01:00:08;;;;;;;;;;;;;;;;;;6164770;23;19954;-92
2022/06/07 01:02:37;;;;;;;;;;;;;;;;;;6166451;23;19913;-92
2022/06/07 01:05:03;;;;;;;;;;;;;;;;;;6139306;23;19912;-91
2022/06/07 01:12:57;;;;;;;;;;;;;;;;;;6162462;23;19920;-92
2022/06/07 01:15:22;;;;;;;;;;;;;;;;;;6137319;23;19908;-92
2022/06/07 01:17:49;;;;;;;;;;;;;;;;;;6139739;23;19937;-94
2022/06/07 01:20:14;;;;;;;;;;;;;;;;;;6162615;23;19955;-92
2022/06/07 01:22:40;;;;;;;;;;;;;;;;;;6136338;23;19916;-93
2022/06/07 01:25:06;;;;;;;;;;;;;;;;;;6163020;23;19913;-93
2022/06/07 01:27:31;;;;;;;;;;;;;;;;;;6162175;23;19924;-90
2022/06/07 01:29:58;;;;;;;;;;;;;;;;;;6137420;23;19913;-92
2022/06/07 01:32:24;;;;;;;;;;;;;;;;;;6161727;23;20370;-93
2022/06/07 01:34:50;;;;;;;;;;;;;;;;;;6166032;23;19917;-91
2022/06/07 01:37:19;;;;;;;;;;;;;;;;;;6143255;23;19917;-91
2022/06/07 01:42:29;;;;;;;;;;;;;;;;;;6184527;23;19952;-92
2022/06/07 01:44:54;;;;;;;;;;;;;;;;;;6172896;23;19917;-93
2022/06/07 01:47:24;;;;;;;;;;;;;;;;;;6145802;23;19916;-91
2022/06/07 01:49:50;;;;;;;;;;;;;;;;;;6169029;23;19940;-91
2022/06/07 01:52:19;;;;;;;;;;;;;;;;;;6166176;23;19913;-92
2022/06/07 01:54:45;;;;;;;;;;;;;;;;;;6168364;23;19939;-92
2022/06/07 01:57:11;;;;;;;;;;;;;;;;;;6166319;23;20324;-91
2022/06/07 01:59:38;;;;;;;;;;;;;;;;;;6167015;23;19913;-92
2022/06/07 02:02:04;;;;;;;;;;;;;;;;;;6141616;23;19919;-91
2022/06/07 02:04:49;;;;;;;;;;;;;;;;;;6167485;23;20253;-92
2022/06/07 02:07:19;;;;;;;;;;;;;;;;;;6165211;23;19919;-93
2022/06/07 02:09:45;;;;;;;;;;;;;;;;;;6139000;23;19912;-91
2022/06/07 02:12:11;;;;;;;;;;;;;;;;;;6165026;23;19916;-93
2022/06/07 02:14:41;;;;;;;;;;;;;;;;;;6164310;23;19959;-92
2022/06/07 02:17:07;;;;;;;;;;;;;;;;;;6138348;23;19913;-91
2022/06/07 02:19:39;;;;;;;;;;;;;;;;;;6163987;23;19913;-94
2022/06/07 02:22:05;;;;;;;;;;;;;;;;;;6138355;23;19936;-92
2022/06/07 02:24:30;;;;;;;;;;;;;;;;;;6163335;23;19913;-94
2022/06/07 02:27:01;;;;;;;;;;;;;;;;;;6162677;23;19928;-92
2022/06/07 02:29:30;;;;;;;;;;;;;;;;;;6164227;23;19912;-91
2022/06/07 02:31:58;;;;;;;;;;;;;;;;;;6163729;23;19912;-94
2022/06/07 02:34:24;;;;;;;;;;;;;;;;;;6163631;23;19968;-91
2022/06/07 02:36:51;;;;;;;;;;;;;;;;;;6162302;23;19913;-94
2022/06/07 02:39:17;;;;;;;;;;;;;;;;;;6162134;23;19967;-94
2022/06/07 02:41:43;;;;;;;;;;;;;;;;;;6163402;23;19917;-92
2022/06/07 02:44:09;;;;;;;;;;;;;;;;;;6163325;23;19987;-92
2022/06/07 02:46:34;;;;;;;;;;;;;;;;;;6162797;23;19913;-94
2022/06/07 02:49:00;;;;;;;;;;;;;;;;;;6162590;23;19924;-93
2022/06/07 02:51:26;;;;;;;;;;;;;;;;;;6161957;23;20246;-95
2022/06/07 02:53:52;;;;;;;;;;;;;;;;;;6134849;23;19912;-94
2022/06/07 02:56:18;;;;;;;;;;;;;;;;;;6134307;23;19940;-92
2022/06/07 02:58:44;;;;;;;;;;;;;;;;;;6160798;23;19920;-93
2022/06/07 03:01:09;;;;;;;;;;;;;;;;;;6135709;23;19916;-94
2022/06/07 03:03:35;;;;;;;;;;;;;;;;;;6160609;23;19919;-91
2022/06/07 03:06:00;;;;;;;;;;;;;;;;;;6160516;23;19920;-92
2022/06/07 03:08:30;;;;;;;;;;;;;;;;;;6136762;23;19919;-93
2022/06/07 03:10:55;;;;;;;;;;;;;;;;;;6162827;23;19939;-90
2022/06/07 03:13:21;;;;;;;;;;;;;;;;;;6163077;23;19912;-91
2022/06/07 03:15:47;;;;;;;;;;;;;;;;;;6134572;23;19913;-92
2022/06/07 03:18:15;;;;;;;;;;;;;;;;;;6138434;23;19952;-91
2022/06/07 03:20:45;;;;;;;;;;;;;;;;;;6162762;23;19912;-92
2022/06/07 03:23:11;;;;;;;;;;;;;;;;;;6136460;23;20325;-92
2022/06/07 03:25:37;;;;;;;;;;;;;;;;;;6135455;23;19924;-92
2022/06/07 03:28:03;;;;;;;;;;;;;;;;;;6159826;23;20226;-93
2022/06/07 03:30:31;;;;;;;;;;;;;;;;;;6137086;23;19913;-93
2022/06/07 03:33:01;;;;;;;;;;;;;;;;;;6112806;23;19917;-92
2022/06/07 03:35:27;;;;;;;;;;;;;;;;;;6164789;23;19940;-93
2022/06/07 03:37:53;;;;;;;;;;;;;;;;;;6135057;23;19967;-91
2022/06/07 03:40:43;;;;;;;;;;;;;;;;;;6159464;23;19967;-91
2022/06/07 03:43:05;;;;;;;;;;;;;;;;;;6159269;23;19980;-91
2022/06/07 03:45:31;;;;;;;;;;;;;;;;;;6113970;23;20407;-93
2022/06/07 03:47:56;;;;;;;;;;;;;;;;;;6138245;23;20000;-91
2022/06/07 03:50:22;;;;;;;;;;;;;;;;;;6138985;23;20321;-90
2022/06/07 03:52:47;;;;;;;;;;;;;;;;;;6164394;23;19913;-92
2022/06/07 03:55:13;;;;;;;;;;;;;;;;;;6160815;23;19932;-93
2022/06/07 03:57:39;;;;;;;;;;;;;;;;;;6167312;23;19977;-91
2022/06/07 04:00:10;;;;;;;;;;;;;;;;;;6144035;23;20233;-92
2022/06/07 04:02:37;;;;;;;;;;;;;;;;;;6142887;23;19913;-93
2022/06/07 04:05:05;;;;;;;;;;;;;;;;;;6118286;23;19965;-93
2022/06/07 04:10:26;;;;;;;;;;;;;;;;;;6169947;23;19936;-93
2022/06/07 04:13:06;;;;;;;;;;;;;;;;;;6168283;23;19917;-93
2022/06/07 04:15:35;;;;;;;;;;;;;;;;;;6145245;23;19932;-92
2022/06/07 04:18:01;;;;;;;;;;;;;;;;;;6141693;23;19917;-92
2022/06/07 04:20:27;;;;;;;;;;;;;;;;;;6143181;23;20273;-93
2022/06/07 04:22:53;;;;;;;;;;;;;;;;;;6142077;23;19912;-91
2022/06/07 04:25:19;;;;;;;;;;;;;;;;;;6159151;23;19966;-93
2022/06/07 04:27:44;;;;;;;;;;;;;;;;;;6157373;23;20266;-94
2022/06/07 04:30:10;;;;;;;;;;;;;;;;;;6131649;23;19921;-92
2022/06/07 04:32:36;;;;;;;;;;;;;;;;;;6131824;23;19954;-92
2022/06/07 04:35:01;;;;;;;;;;;;;;;;;;6131508;23;19908;-93
2022/06/07 04:37:27;;;;;;;;;;;;;;;;;;6131927;23;19960;-92
2022/06/07 04:39:52;;;;;;;;;;;;;;;;;;6132136;23;19936;-92
2022/06/07 04:42:17;;;;;;;;;;;;;;;;;;6131510;23;19916;-93
2022/06/07 04:44:43;;;;;;;;;;;;;;;;;;6131865;23;19923;-93
2022/06/07 04:47:08;;;;;;;;;;;;;;;;;;6157985;23;19959;-91
2022/06/07 04:49:35;;;;;;;;;;;;;;;;;;6131666;23;20348;-93
2022/06/07 04:52:00;;;;;;;;;;;;;;;;;;6157676;23;19921;-93
2022/06/07 04:54:26;;;;;;;;;;;;;;;;;;6158146;23;19917;-92
2022/06/07 04:56:53;;;;;;;;;;;;;;;;;;6158447;23;19913;-92
2022/06/07 04:59:19;;;;;;;;;;;;;;;;;;6158780;23;19940;-93
2022/06/07 05:01:44;;;;;;;;;;;;;;;;;;6157972;23;19912;-92
2022/06/07 05:04:10;;;;;;;;;;;;;;;;;;6132131;23;19916;-92
2022/06/07 05:06:39;;;;;;;;;;;;;;;;;;6158108;23;19966;-92
2022/06/07 05:09:26;;;;;;;;;;;;;;;;;;6132296;23;20326;-92
2022/06/07 05:11:52;;;;;;;;;;;;;;;;;;6132526;23;19919;-93
2022/06/07 05:14:18;;;;;;;;;;;;;;;;;;6158260;23;19979;-91
2022/06/07 05:16:43;;;;;;;;;;;;;;;;;;6132111;23;19909;-92
2022/06/07 05:19:10;;;;;;;;;;;;;;;;;;6131918;23;19913;-91
2022/06/07 05:21:36;;;;;;;;;;;;;;;;;;6132165;23;20211;-94
2022/06/07 05:24:02;;;;;;;;;;;;;;;;;;6132236;23;19920;-93
2022/06/07 05:26:33;;;;;;;;;;;;;;;;;;6131933;23;19913;-92
2022/06/07 05:28:59;;;;;;;;;;;;;;;;;;6132086;23;19908;-91
2022/06/07 05:31:24;;;;;;;;;;;;;;;;;;6132015;23;19913;-92
2022/06/07 05:33:50;;;;;;;;;;;;;;;;;;6157560;23;19992;-93
2022/06/07 05:36:15;;;;;;;;;;;;;;;;;;6131919;23;19960;-92
2022/06/07 05:38:41;;;;;;;;;;;;;;;;;;6159958;23;19912;-91
2022/06/07 05:41:07;;;;;;;;;;;;;;;;;;6160340;23;19923;-93
2022/06/07 05:43:33;;;;;;;;;;;;;;;;;;6161634;23;19913;-92
2022/06/07 05:45:59;;;;;;;;;;;;;;;;;;6139886;23;19971;-92
2022/06/07 05:48:25;;;;;;;;;;;;;;;;;;6138904;23;19912;-92
2022/06/07 05:50:50;;;;;;;;;;;;;;;;;;6158555;23;19913;-90
2022/06/07 05:53:17;;;;;;;;;;;;;;;;;;6132429;23;19913;-92
2022/06/07 05:55:42;;;;;;;;;;;;;;;;;;6132062;23;19999;-94
2022/06/07 05:58:08;;;;;;;;;;;;;;;;;;6132215;23;20237;-92
2022/06/07 06:00:34;;;;;;;;;;;;;;;;;;6131922;23;19983;-93
2022/06/07 06:02:59;;;;;;;;;;;;;;;;;;6158075;23;19912;-93
2022/06/07 06:05:25;;;;;;;;;;;;;;;;;;6158108;23;19912;-91
2022/06/07 06:10:34;;;;;;;;;;;;;;;;;;6158064;23;20242;-92
2022/06/07 06:13:00;;;;;;;;;;;;;;;;;;6158255;23;19916;-92
2022/06/07 06:15:26;;;;;;;;;;;;;;;;;;6158233;23;19908;-91
2022/06/07 06:17:52;;;;;;;;;;;;;;;;;;6131858;23;19913;-92
2022/06/07 06:20:17;;;;;;;;;;;;;;;;;;6131872;23;19912;-93
2022/06/07 06:22:43;;;;;;;;;;;;;;;;;;6157971;23;19954;-93
2022/06/07 06:25:09;;;;;;;;;;;;;;;;;;6131954;23;19999;-93
2022/06/07 06:27:34;;;;;;;;;;;;;;;;;;6131881;23;19912;-93
2022/06/07 06:30:00;;;;;;;;;;;;;;;;;;6132124;23;19913;-92
2022/06/07 06:32:26;;;;;;;;;;;;;;;;;;6131911;23;19920;-93
2022/06/07 06:34:51;;;;;;;;;;;;;;;;;;6157966;23;19909;-93
2022/06/07 06:37:17;;;;;;;;;;;;;;;;;;6130672;23;19912;-93
2022/06/07 06:39:43;;;;;;;;;;;;;;;;;;6131007;23;19919;-92
2022/06/07 06:42:09;;;;;;;;;;;;;;;;;;6157691;23;19917;-91
2022/06/07 06:44:34;;;;;;;;;;;;;;;;;;6158300;23;20322;-92
2022/06/07 06:47:01;;;;;;;;;;;;;;;;;;6158102;23;19912;-91
2022/06/07 06:49:27;;;;;;;;;;;;;;;;;;6158093;23;19919;-92
2022/06/07 06:51:53;;;;;;;;;;;;;;;;;;6157908;23;19912;-92
2022/06/07 06:54:19;;;;;;;;;;;;;;;;;;6157640;23;19965;-93
2022/06/07 06:56:44;;;;;;;;;;;;;;;;;;6131648;23;20281;-93
2022/06/07 06:59:10;;;;;;;;;;;;;;;;;;6131709;23;19917;-92
2022/06/07 07:01:38;;;;;;;;;;;;;;;;;;6131856;23;19912;-92
2022/06/07 07:04:05;;;;;;;;;;;;;;;;;;6131672;23;20280;-92
2022/06/07 07:06:31;;;;;;;;;;;;;;;;;;6131514;23;20290;-92
2022/06/07 07:08:56;;;;;;;;;;;;;;;;;;6157552;23;19920;-92
2022/06/07 07:11:24;;;;;;;;;;;;;;;;;;6131350;23;19980;-94
2022/06/07 07:13:50;;;;;;;;;;;;;;;;;;6131543;23;19967;-92
2022/06/07 07:16:17;;;;;;;;;;;;;;;;;;6131489;23;19913;-92
2022/06/07 07:18:43;;;;;;;;;;;;;;;;;;6157685;23;19940;-92
2022/06/07 07:21:11;;;;;;;;;;;;;;;;;;6131773;23;19912;-93
2022/06/07 07:23:38;;;;;;;;;;;;;;;;;;6131513;23;19913;-92
2022/06/07 07:26:09;;;;;;;;;;;;;;;;;;6157635;23;20329;-92
2022/06/07 07:28:35;;;;;;;;;;;;;;;;;;6131723;23;19948;-92
2022/06/07 07:31:03;;;;;;;;;;;;;;;;;;6131446;23;19912;-92
2022/06/07 07:33:28;;;;;;;;;;;;;;;;;;6131714;23;19913;-92
2022/06/07 07:35:54;;;;;;;;;;;;;;;;;;6131663;23;19908;-91
2022/06/07 07:38:19;;;;;;;;;;;;;;;;;;6131614;23;19981;-92
2022/06/07 07:40:44;;;;;;;;;;;;;;;;;;6131528;23;19968;-94
2022/06/07 07:43:10;;;;;;;;;;;;;;;;;;6131546;23;20325;-93
2022/06/07 07:45:36;;;;;;;;;;;;;;;;;;6131509;23;19912;-91
2022/06/07 07:48:02;;;;;;;;;;;;;;;;;;6131704;23;19913;-92
2022/06/07 07:50:28;;;;;;;;;;;;;;;;;;6157524;23;20286;-91
2022/06/07 07:52:53;;;;;;;;;;;;;;;;;;6131909;23;20345;-93
2022/06/07 07:55:18;;;;;;;;;;;;;;;;;;6131480;23;19940;-91
2022/06/07 07:57:45;;;;;;;;;;;;;;;;;;6157874;23;19948;-93
2022/06/07 08:00:11;;;;;;;;;;;;;;;;;;6157333;23;19912;-91
2022/06/07 08:02:36;;;;;;;;;;;;;;;;;;6131406;23;19959;-91
2022/06/07 08:05:02;;;;;;;;;;;;;;;;;;6131706;23;19913;-92
2022/06/07 08:07:27;;;;;;;;;;;;;;;;;;6157508;23;19909;-93
2022/06/07 08:09:53;;;;;;;;;;;;;;;;;;6157325;23;19913;-92
2022/06/07 08:12:18;;;;;;;;;;;;;;;;;;6157519;23;20318;-92
2022/06/07 08:14:44;;;;;;;;;;;;;;;;;;6131334;23;19964;-94
2022/06/07 08:17:09;;;;;;;;;;;;;;;;;;6131309;23;19913;-92
2022/06/07 08:19:35;;;;;;;;;;;;;;;;;;6131492;23;19912;-91
2022/06/07 08:22:01;;;;;;;;;;;;;;;;;;6131796;23;19920;-91
2022/06/07 08:24:26;;;;;;;;;;;;;;;;;;6157410;23;19912;-93
2022/06/07 08:26:52;;;;;;;;;;;;;;;;;;6157946;23;19920;-91
2022/06/07 08:29:20;;;;;;;;;;;;;;;;;;6131335;23;19913;-91
2022/06/07 08:31:45;;;;;;;;;;;;;;;;;;6131080;23;19916;-92
2022/06/07 08:39:41;;;;;;;;;;;;;;;;;;6157205;23;20021;-91
2022/06/07 08:42:25;;;;;;;;;;;;;;;;;;6125651;23;20319;-92
2022/06/07 08:44:52;;;;;;;;;;;;;;;;;;6126557;23;20330;-92
2022/06/07 08:47:23;;;;;;;;;;;;;;;;;;6128017;23;19916;-91
2022/06/07 08:49:50;;;;;;;;;;;;;;;;;;6126598;23;19913;-93
2022/06/07 08:52:18;;;;;;;;;;;;;;;;;;6126649;23;19936;-92
2022/06/07 08:54:44;;;;;;;;;;;;;;;;;;6127597;23;19913;-92
2022/06/07 08:57:18;;;;;;;;;;;;;;;;;;6125671;23;19917;-92
2022/06/07 08:59:47;;;;;;;;;;;;;;;;;;6127471;23;19919;-92
2022/06/07 09:02:30;;;;;;;;;;;;;;;;;;6126018;23;19913;-92
2022/06/07 09:04:56;;;;;;;;;;;;;;;;;;6127461;23;20350;-91
2022/06/07 09:07:22;;;;;;;;;;;;;;;;;;6125786;23;19920;-93
2022/06/07 09:12:35;;;;;;;;;;;;;;;;;;6128027;23;19940;-93
2022/06/07 09:15:04;;;;;;;;;;;;;;;;;;6127722;23;19912;-92
2022/06/07 09:17:30;;;;;;;;;;;;;;;;;;6128029;23;19913;-92
2022/06/07 09:19:56;;;;;;;;;;;;;;;;;;6129476;23;19941;-94
2022/06/07 09:22:25;;;;;;;;;;;;;;;;;;6128196;23;20215;-94
2022/06/07 09:25:00;;;;;;;;;;;;;;;;;;6129327;23;19920;-93
2022/06/07 09:27:26;;;;;;;;;;;;;;;;;;6127843;23;19917;-92
2022/06/07 09:29:54;;;;;;;;;;;;;;;;;;6127760;23;19913;-93
2022/06/07 09:32:22;;;;;;;;;;;;;;;;;;6127959;23;19923;-92
2022/06/07 09:34:56;;;;;;;;;;;;;;;;;;6127853;23;19913;-92
2022/06/07 09:37:25;;;;;;;;;;;;;;;;;;6119028;23;19913;-92
2022/06/07 09:39:54;;;;;;;;;;;;;;;;;;6129230;23;19917;-91
2022/06/07 09:42:22;;;;;;;;;;;;;;;;;;6150433;23;19920;-95
2022/06/07 09:44:54;;;;;;;;;;;;;;;;;;6134398;23;19913;-93
2022/06/07 09:47:25;;;;;;;;;;;;;;;;;;6148382;23;19909;-92
2022/06/07 09:49:53;;;;;;;;;;;;;;;;;;6136791;23;19999;-93
2022/06/07 09:52:24;;;;;;;;;;;;;;;;;;6158543;23;19913;-95
2022/06/07 09:54:54;;;;;;;;;;;;;;;;;;6132274;23;19920;-93
2022/06/07 09:57:21;;;;;;;;;;;;;;;;;;6132353;23;19916;-92
2022/06/07 10:00:11;;;;;;;;;;;;;;;;;;6132205;23;20253;-91
2022/06/07 10:02:56;;;;;;;;;;;;;;;;;;6158222;23;19917;-90
2022/06/07 10:05:32;;;;;;;;;;;;;;;;;;6158369;23;19944;-91
2022/06/07 10:07:57;;;;;;;;;;;;;;;;;;6132068;23;19912;-90
2022/06/07 10:10:47;;;;;;;;;;;;;;;;;;6158114;23;20241;-91
2022/06/07 10:13:25;;;;;;;;;;;;;;;;;;6091805;23;19919;-90
2022/06/07 10:15:53;;;;;;;;;;;;;;;;;;6158378;23;19913;-92
2022/06/07 10:18:41;;;;;;;;;;;;;;;;;;6158628;23;19920;-92
2022/06/07 10:21:26;;;;;;;;;;;;;;;;;;6157490;23;19913;-91
2022/06/07 10:24:05;;;;;;;;;;;;;;;;;;6158188;23;19976;-92
2022/06/07 10:26:36;;;;;;;;;;;;;;;;;;6158553;23;19917;-92
2022/06/07 10:29:20;;;;;;;;;;;;;;;;;;6158266;23;19909;-91
2022/06/07 10:31:50;;;;;;;;;;;;;;;;;;6158715;23;19916;-92
2022/06/07 10:34:34;;;;;;;;;;;;;;;;;;6132083;23;19920;-92
2022/06/07 10:37:32;;;;;;;;;;;;;;;;;;6132515;23;20357;-92
2022/06/07 10:40:14;;;;;;;;;;;;;;;;;;6053723;23;19944;-92
2022/06/07 10:42:49;;;;;;;;;;;;;;;;;;6127675;23;20000;-91
2022/06/07 10:45:16;;;;;;;;;;;;;;;;;;6129100;23;19913;-90
2022/06/07 10:48:00;;;;;;;;;;;;;;;;;;6129000;23;19913;-93
2022/06/07 10:50:35;;;;;;;;;;;;;;;;;;6127457;23;19920;-90
2022/06/07 10:53:16;;;;;;;;;;;;;;;;;;6127343;23;19924;-90
2022/06/07 10:55:47;;;;;;;;;;;;;;;;;;6129128;23;19909;-90
2022/06/07 10:58:27;;;;;;;;;;;;;;;;;;6128881;23;20340;-91
2022/06/07 11:00:55;;;;;;;;;;;;;;;;;;6129320;23;20027;-90
2022/06/07 11:03:28;;;;;;;;;;;;;;;;;;6128894;23;19924;-92
2022/06/07 11:09:24;;;;;;;;;;;;;;;;;;6129387;23;19916;-91
2022/06/07 11:11:54;;;;;;;;;;;;;;;;;;6011871;23;19982;-92
2022/06/07 11:14:28;;;;;;;;;;;;;;;;;;6012032;23;19947;-90
2022/06/07 11:17:01;;;;;;;;;;;;;;;;;;6075938;23;19984;-91
2022/06/07 11:31:35;;;;;;;;;;;;;;;;;;5063434;27;2713482;-89
2022/06/07 11:34:03;;;;;;;;;;;;;;;;;;5155810;27;19967;-88
2022/06/07 11:36:34;;;;;;;;;;;;;;;;;;5167773;27;19979;-89
2022/06/07 11:39:30;;;;;;;;;;;;;;;;;;5164940;27;19936;-90
2022/06/07 11:42:21;;;;;;;;;;;;;;;;;;5161624;27;19926;-88
2022/06/07 11:45:08;;;;;;;;;;;;;;;;;;5156126;27;19915;-88
2022/06/07 11:47:44;;;;;;;;;;;;;;;;;;5159945;27;19922;-89
2022/06/07 11:50:12;;;;;;;;;;;;;;;;;;5157969;27;19940;-88
2022/06/07 11:53:03;;;;;;;;;;;;;;;;;;5162143;27;19919;-89
2022/06/07 11:55:38;;;;;;;;;;;;;;;;;;5165762;27;19899;-89
2022/06/07 11:58:07;;;;;;;;;;;;;;;;;;5164313;27;19916;-89
2022/06/07 12:00:41;;;;;;;;;;;;;;;;;;5161130;27;19916;-88
2022/06/07 12:03:08;;;;;;;;;;;;;;;;;;5162265;27;19916;-90
2022/06/07 12:05:45;;;;;;;;;;;;;;;;;;5167709;27;19950;-90
2022/06/07 12:08:21;;;;;;;;;;;;;;;;;;5158747;27;20017;-90
2022/06/07 12:11:05;;;;;;;;;;;;;;;;;;5162733;27;20011;-90
2022/06/07 12:13:55;;;;;;;;;;;;;;;;;;5160834;27;19915;-90
2022/06/07 12:16:35;;;;;;;;;;;;;;;;;;5160827;27;19922;-89
2022/06/07 12:19:07;;;;;;;;;;;;;;;;;;5159470;27;19915;-90
2022/06/07 12:21:42;;;;;;;;;;;;;;;;;;5161296;27;19922;-90
2022/06/07 12:24:12;;;;;;;;;;;;;;;;;;5161567;27;19930;-88
2022/06/07 12:26:37;;;;;;;;;;;;;;;;;;5163912;27;19915;-91
2022/06/07 12:29:21;;;;;;;;;;;;;;;;;;5164515;27;19923;-90
2022/06/07 12:32:07;;;;;;;;;;;;;;;;;;5156697;27;19920;-90
2022/06/07 12:34:40;;;;;;;;;;;;;;;;;;5148566;27;19916;-90
2022/06/07 12:37:10;;;;;;;;;;;;;;;;;;5540140;22;19929;-89
2022/06/07 12:39:47;;;;;;;;;;;;;;;;;;5095896;28;19964;-89
2022/06/07 12:42:29;;;;;;;;;;;;;;;;;;5071554;28;19920;-89
2022/06/07 12:44:58;;;;;;;;;;;;;;;;;;5071402;28;19929;-89
2022/06/07 12:47:32;;;;;;;;;;;;;;;;;;5069074;28;19968;-90
2022/06/07 12:49:58;;;;;;;;;;;;;;;;;;5070029;28;19916;-89
2022/06/07 12:52:27;;;;;;;;;;;;;;;;;;5084944;28;19923;-89
2022/06/07 12:54:54;;;;;;;;;;;;;;;;;;5066502;28;19988;-89
2022/06/07 12:57:26;;;;;;;;;;;;;;;;;;5066602;28;19924;-89
2022/06/07 12:59:55;;;;;;;;;;;;;;;;;;5083794;28;20380;-88
2022/06/07 13:02:31;;;;;;;;;;;;;;;;;;5086927;28;19984;-89
2022/06/07 13:04:58;;;;;;;;;;;;;;;;;;5083262;28;19912;-90
2022/06/07 13:07:25;;;;;;;;;;;;;;;;;;5082673;28;20330;-89
2022/06/07 13:09:56;;;;;;;;;;;;;;;;;;5067865;28;19920;-90
2022/06/07 13:12:28;;;;;;;;;;;;;;;;;;5066158;28;20279;-90
2022/06/07 13:14:54;;;;;;;;;;;;;;;;;;5084814;28;19919;-88
2022/06/07 13:17:39;;;;;;;;;;;;;;;;;;5065833;28;19917;-89
2022/06/07 13:20:07;;;;;;;;;;;;;;;;;;5065679;28;19917;-89
2022/06/07 13:22:38;;;;;;;;;;;;;;;;;;5085595;28;19920;-89
2022/06/07 13:25:11;;;;;;;;;;;;;;;;;;5066278;28;19920;-90
2022/06/07 13:27:43;;;;;;;;;;;;;;;;;;5085468;28;20322;-90
2022/06/07 13:30:29;;;;;;;;;;;;;;;;;;5092367;28;19928;-91
2022/06/07 13:33:04;;;;;;;;;;;;;;;;;;5087935;28;19935;-88
2022/06/07 13:35:40;;;;;;;;;;;;;;;;;;5093314;28;19942;-88
2022/06/07 13:38:19;;;;;;;;;;;;;;;;;;5072820;28;19920;-88
2022/06/07 13:40:44;;;;;;;;;;;;;;;;;;5051886;28;19930;-88
2022/06/07 13:43:24;;;;;;;;;;;;;;;;;;5076470;28;19963;-88
2022/06/07 13:45:50;;;;;;;;;;;;;;;;;;5060028;28;19931;-90
2022/06/07 13:54:22;;;;;;;;;;;;;;;;;;5079939;28;19923;-88
2022/06/07 13:56:48;;;;;;;;;;;;;;;;;;5059763;28;19916;-88
2022/06/07 13:59:15;;;;;;;;;;;;;;;;;;5076398;28;19920;-87
2022/06/07 14:01:47;;;;;;;;;;;;;;;;;;5058585;28;19983;-88
2022/06/07 14:04:12;;;;;;;;;;;;;;;;;;5059427;28;19922;-87
2022/06/07 14:06:40;;;;;;;;;;;;;;;;;;5077575;28;20433;-88
2022/06/07 14:09:15;;;;;;;;;;;;;;;;;;5061050;28;19916;-88
2022/06/07 14:11:40;;;;;;;;;;;;;;;;;;5081239;28;19917;-88
2022/06/07 14:14:07;;;;;;;;;;;;;;;;;;5079984;28;19916;-88
2022/06/07 14:16:35;;;;;;;;;;;;;;;;;;5079580;28;19920;-89
2022/06/07 14:19:04;;;;;;;;;;;;;;;;;;5061748;28;19957;-87
2022/06/07 14:21:29;;;;;;;;;;;;;;;;;;5079784;28;19924;-90
2022/06/07 14:23:54;;;;;;;;;;;;;;;;;;5081659;28;19920;-90
2022/06/07 14:26:21;;;;;;;;;;;;;;;;;;5092468;28;20302;-90
2022/06/07 14:28:55;;;;;;;;;;;;;;;;;;5107478;28;19927;-91
2022/06/07 14:31:22;;;;;;;;;;;;;;;;;;5100050;28;19926;-89
2022/06/07 14:33:56;;;;;;;;;;;;;;;;;;5078264;28;20392;-90
2022/06/07 14:36:24;;;;;;;;;;;;;;;;;;5101001;28;19920;-90
2022/06/07 14:38:49;;;;;;;;;;;;;;;;;;5107088;28;19926;-91
2022/06/07 14:41:15;;;;;;;;;;;;;;;;;;5086584;28;19920;-88
2022/06/07 14:43:41;;;;;;;;;;;;;;;;;;5090407;28;20005;-90
2022/06/07 14:46:18;;;;;;;;;;;;;;;;;;5089651;28;19947;-89
2022/06/07 14:48:47;;;;;;;;;;;;;;;;;;5071735;28;20408;-90
2022/06/07 14:51:18;;;;;;;;;;;;;;;;;;5065593;28;19927;-91
2022/06/07 14:53:45;;;;;;;;;;;;;;;;;;5090033;28;19935;-90
2022/06/07 14:56:15;;;;;;;;;;;;;;;;;;5099878;28;20334;-91
2022/06/07 14:58:41;;;;;;;;;;;;;;;;;;5082089;28;19920;-91
2022/06/07 15:01:08;;;;;;;;;;;;;;;;;;5076681;28;19965;-91
2022/06/07 15:03:34;;;;;;;;;;;;;;;;;;5097120;28;20020;-90
2022/06/07 15:06:00;;;;;;;;;;;;;;;;;;5081594;28;20378;-91
2022/06/07 15:08:26;;;;;;;;;;;;;;;;;;5100347;28;19916;-90
2022/06/07 15:10:53;;;;;;;;;;;;;;;;;;5104309;28;19916;-90
2022/06/07 15:13:28;;;;;;;;;;;;;;;;;;5105044;28;19917;-90
2022/06/07 15:16:01;;;;;;;;;;;;;;;;;;5104803;28;19948;-90
2022/06/07 15:18:30;;;;;;;;;;;;;;;;;;5086317;28;19916;-89
2022/06/07 15:20:57;;;;;;;;;;;;;;;;;;5085759;28;19907;-90
2022/06/07 15:23:23;;;;;;;;;;;;;;;;;;5088323;28;19920;-91
2022/06/07 15:25:51;;;;;;;;;;;;;;;;;;5088271;28;19916;-89
2022/06/07 15:28:27;;;;;;;;;;;;;;;;;;5104717;28;20427;-90
2022/06/07 15:30:52;;;;;;;;;;;;;;;;;;5107692;28;20417;-89
2022/06/07 15:33:25;;;;;;;;;;;;;;;;;;5105325;28;19917;-89
2022/06/07 15:35:51;;;;;;;;;;;;;;;;;;5085523;28;19916;-89
2022/06/07 15:38:19;;;;;;;;;;;;;;;;;;5084064;28;19920;-89
2022/06/07 15:40:46;;;;;;;;;;;;;;;;;;5086723;28;19916;-91
2022/06/07 15:43:13;;;;;;;;;;;;;;;;;;5080066;28;19916;-89
2022/06/07 15:45:40;;;;;;;;;;;;;;;;;;5082761;28;19966;-89
2022/06/07 15:48:06;;;;;;;;;;;;;;;;;;5079422;28;19924;-90
2022/06/07 15:50:33;;;;;;;;;;;;;;;;;;5080199;28;19916;-90
2022/06/07 15:52:59;;;;;;;;;;;;;;;;;;5083971;28;19916;-89
2022/06/07 15:55:29;;;;;;;;;;;;;;;;;;5085241;28;19994;-91
2022/06/07 16:00:39;;;;;;;;;;;;;;;;;;5084107;28;19907;-90
2022/06/07 16:03:06;;;;;;;;;;;;;;;;;;5083348;28;19948;-88
2022/06/07 16:05:32;;;;;;;;;;;;;;;;;;5083364;28;19916;-88
2022/06/07 16:07:59;;;;;;;;;;;;;;;;;;5087810;28;19923;-90
2022/06/07 16:10:28;;;;;;;;;;;;;;;;;;5085592;28;19923;-88
2022/06/07 16:12:53;;;;;;;;;;;;;;;;;;5082245;28;19920;-89
2022/06/07 16:15:19;;;;;;;;;;;;;;;;;;5080921;28;19916;-91
2022/06/07 16:17:44;;;;;;;;;;;;;;;;;;5081011;28;19916;-89
2022/06/07 16:20:12;;;;;;;;;;;;;;;;;;5085849;28;19956;-90
2022/06/07 16:22:40;;;;;;;;;;;;;;;;;;5085731;28;19938;-89
2022/06/07 16:25:09;;;;;;;;;;;;;;;;;;5086148;28;19916;-89
2022/06/07 16:33:19;;;;;;;;;;;;;;;;;;5083640;28;19930;-89
2022/06/07 16:35:45;;;;;;;;;;;;;;;;;;5081809;28;19916;-88
2022/06/07 16:38:11;;;;;;;;;;;;;;;;;;5088341;28;19928;-88
2022/06/07 16:40:39;;;;;;;;;;;;;;;;;;5087389;28;20287;-88
2022/06/07 16:45:54;;;;;;;;;;;;;;;;;;5102366;28;20013;-89
2022/06/07 16:48:23;;;;;;;;;;;;;;;;;;5085024;28;19948;-89
2022/06/07 16:50:51;;;;;;;;;;;;;;;;;;5101265;28;19977;-89
2022/06/07 16:53:16;;;;;;;;;;;;;;;;;;5120076;28;19916;-89
2022/06/07 16:55:45;;;;;;;;;;;;;;;;;;5103291;28;19904;-92
2022/06/07 16:58:11;;;;;;;;;;;;;;;;;;5114407;28;19931;-88
2022/06/07 17:00:39;;;;;;;;;;;;;;;;;;5094405;28;19947;-90
2022/06/07 17:03:05;;;;;;;;;;;;;;;;;;5102562;28;19919;-89
2022/06/07 17:05:33;;;;;;;;;;;;;;;;;;5101982;28;20350;-89
2022/06/07 17:07:59;;;;;;;;;;;;;;;;;;5099282;28;19977;-89
2022/06/07 17:10:24;;;;;;;;;;;;;;;;;;5081762;28;19924;-88
2022/06/07 17:12:49;;;;;;;;;;;;;;;;;;5094003;28;19920;-89
2022/06/07 17:15:15;;;;;;;;;;;;;;;;;;5077946;28;19920;-88
2022/06/07 17:17:40;;;;;;;;;;;;;;;;;;5086377;28;20014;-88
2022/06/07 17:20:06;;;;;;;;;;;;;;;;;;5084293;28;20200;-88
2022/06/07 17:22:32;;;;;;;;;;;;;;;;;;5087073;28;19955;-92
2022/06/07 17:24:57;;;;;;;;;;;;;;;;;;5074062;28;19920;-88
2022/06/07 17:27:22;;;;;;;;;;;;;;;;;;5086116;28;19999;-90
2022/06/07 17:29:48;;;;;;;;;;;;;;;;;;5069980;28;19927;-89
2022/06/07 17:32:13;;;;;;;;;;;;;;;;;;5088108;28;19927;-91
2022/06/07 17:34:39;;;;;;;;;;;;;;;;;;5089246;28;19920;-89
2022/06/07 17:37:04;;;;;;;;;;;;;;;;;;5087501;28;19924;-89
2022/06/07 17:39:33;;;;;;;;;;;;;;;;;;5095356;28;19939;-88
2022/06/07 17:42:06;;;;;;;;;;;;;;;;;;5099752;28;19924;-90
2022/06/07 17:44:40;;;;;;;;;;;;;;;;;;5098353;28;19920;-90
2022/06/07 17:47:06;;;;;;;;;;;;;;;;;;5099965;28;20007;-90
2022/06/07 17:49:37;;;;;;;;;;;;;;;;;;5100799;28;20024;-88
2022/06/07 17:52:03;;;;;;;;;;;;;;;;;;5075943;28;19934;-89